createdAt,value
2023-10-26T00:00:11.148Z,16.19
2023-10-26T00:02:38.168Z,16.22
2023-10-26T00:05:05.544Z,16.24
2023-10-26T00:07:32.662Z,16.20
2023-10-26T00:09:59.469Z,16.17
2023-10-26T00:12:26.720Z,16.22
2023-10-26T00:14:54.417Z,16.24
2023-10-26T00:17:21.490Z,16.23
2023-10-26T00:19:48.285Z,16.22
2023-10-26T00:22:15.320Z,16.21
2023-10-26T00:24:42.185Z,16.21
2023-10-26T00:27:09.071Z,16.20
2023-10-26T00:29:35.915Z,16.17
2023-10-26T00:32:02.700Z,16.17
2023-10-26T00:34:29.512Z,16.15
2023-10-26T00:36:56.798Z,16.17
2023-10-26T00:39:23.636Z,16.18
2023-10-26T00:41:57.019Z,16.19
2023-10-26T00:44:24.505Z,16.18
2023-10-26T00:46:53.399Z,16.17
2023-10-26T00:49:21.009Z,16.17
2023-10-26T00:51:58.441Z,16.14
2023-10-26T00:54:27.797Z,16.14
2023-10-26T00:56:56.373Z,16.14
2023-10-26T00:59:28.039Z,16.13
2023-10-26T01:01:55.778Z,16.13
2023-10-26T01:04:22.615Z,16.10
2023-10-26T01:06:49.511Z,16.14
2023-10-26T01:09:16.555Z,16.11
2023-10-26T01:11:43.921Z,16.08
2023-10-26T01:14:10.880Z,16.03
2023-10-26T01:16:38.231Z,16.07
2023-10-26T01:19:06.966Z,16.02
2023-10-26T01:21:55.224Z,16.06
2023-10-26T01:24:22.106Z,16.05
2023-10-26T01:26:48.980Z,16.06
2023-10-26T01:29:15.978Z,16.09
2023-10-26T01:31:42.780Z,16.07
2023-10-26T01:34:09.549Z,16.04
2023-10-26T01:36:36.300Z,16.07
2023-10-26T01:39:04.185Z,16.06
2023-10-26T01:41:34.403Z,16.05
2023-10-26T01:44:04.669Z,16.08
2023-10-26T01:46:31.747Z,16.05
2023-10-26T01:49:01.957Z,16.07
2023-10-26T01:51:28.994Z,16.04
2023-10-26T01:53:56.151Z,16.03
2023-10-26T01:56:22.898Z,16.05
2023-10-26T01:58:49.743Z,16.04
2023-10-26T02:01:16.721Z,16.05
2023-10-26T02:03:43.536Z,16.04
2023-10-26T02:06:11.072Z,16.05
2023-10-26T02:08:37.964Z,16.03
2023-10-26T02:11:05.569Z,16.03
2023-10-26T02:13:32.638Z,16.02
2023-10-26T02:16:02.764Z,15.98
2023-10-26T02:18:30.422Z,16.00
2023-10-26T02:20:57.644Z,16.00
2023-10-26T02:23:24.730Z,16.01
2023-10-26T02:25:52.355Z,15.98
2023-10-26T02:28:20.990Z,16.00
2023-10-26T02:30:47.886Z,16.01
2023-10-26T02:33:14.786Z,15.96
2023-10-26T02:35:41.964Z,15.97
2023-10-26T02:38:08.712Z,16.00
2023-10-26T02:40:38.931Z,15.98
2023-10-26T02:43:06.159Z,15.94
2023-10-26T02:45:33.088Z,15.96
2023-10-26T02:48:00.652Z,15.96
2023-10-26T02:50:28.773Z,15.96
2023-10-26T02:52:55.749Z,15.97
2023-10-26T02:55:22.736Z,15.98
2023-10-26T02:57:49.688Z,15.99
2023-10-26T03:00:17.764Z,15.97
2023-10-26T03:02:44.908Z,15.97
2023-10-26T03:05:11.875Z,15.97
2023-10-26T03:07:38.631Z,15.93
2023-10-26T03:10:06.647Z,15.94
2023-10-26T03:12:33.829Z,15.91
2023-10-26T03:15:01.499Z,15.89
2023-10-26T03:17:28.492Z,15.90
2023-10-26T03:19:55.362Z,15.87
2023-10-26T03:22:22.626Z,15.88
2023-10-26T03:24:51.205Z,15.88
2023-10-26T03:27:18.087Z,15.88
2023-10-26T03:29:44.921Z,15.87
2023-10-26T03:32:11.886Z,15.85
2023-10-26T03:34:38.700Z,15.84
2023-10-26T03:37:05.581Z,15.81
2023-10-26T03:39:32.472Z,15.81
2023-10-26T03:41:59.716Z,15.84
2023-10-26T03:44:26.642Z,15.82
2023-10-26T03:46:53.764Z,15.80
2023-10-26T03:49:21.616Z,15.82
2023-10-26T03:51:49.178Z,15.81
2023-10-26T03:54:16.279Z,15.76
2023-10-26T03:56:43.508Z,15.77
2023-10-26T03:59:10.342Z,15.77
2023-10-26T04:01:37.297Z,15.76
2023-10-26T04:04:04.346Z,15.76
2023-10-26T04:06:34.080Z,15.77
2023-10-26T04:09:01.086Z,15.76
2023-10-26T04:11:28.028Z,15.74
2023-10-26T04:13:59.227Z,15.74
2023-10-26T04:16:26.533Z,15.74
2023-10-26T04:18:53.665Z,15.74
2023-10-26T04:21:23.658Z,15.72
2023-10-26T04:23:50.404Z,15.73
2023-10-26T04:26:17.179Z,15.74
2023-10-26T04:28:51.250Z,15.72
2023-10-26T04:31:19.404Z,15.71
2023-10-26T04:33:46.214Z,15.73
2023-10-26T04:36:13.268Z,15.71
2023-10-26T04:38:40.482Z,15.72
2023-10-26T04:41:07.262Z,15.69
2023-10-26T04:43:34.107Z,15.69
2023-10-26T04:46:00.918Z,15.67
2023-10-26T04:48:28.156Z,15.65
2023-10-26T04:50:55.219Z,15.64
2023-10-26T04:53:22.073Z,15.64
2023-10-26T04:55:48.804Z,15.61
2023-10-26T04:58:15.600Z,15.62
2023-10-26T05:00:42.465Z,15.62
2023-10-26T05:03:09.360Z,15.61
2023-10-26T05:05:36.430Z,15.61
2023-10-26T05:08:04.729Z,15.59
2023-10-26T05:10:31.604Z,15.57
2023-10-26T05:12:58.729Z,15.59
2023-10-26T05:15:25.822Z,15.59
2023-10-26T05:17:52.610Z,15.58
2023-10-26T05:20:19.557Z,15.57
2023-10-26T05:22:46.365Z,15.55
2023-10-26T05:25:15.069Z,15.56
2023-10-26T05:27:42.143Z,15.55
2023-10-26T05:30:09.391Z,15.56
2023-10-26T05:32:36.310Z,15.54
2023-10-26T05:35:03.466Z,15.52
2023-10-26T05:37:30.546Z,15.51
2023-10-26T05:40:00.312Z,15.52
2023-10-26T05:42:27.291Z,15.52
2023-10-26T05:44:58.059Z,15.51
2023-10-26T05:47:25.303Z,15.51
2023-10-26T05:49:52.216Z,15.48
2023-10-26T05:52:19.261Z,15.48
2023-10-26T05:54:46.329Z,15.48
2023-10-26T05:57:13.957Z,15.48
2023-10-26T05:59:41.040Z,15.49
2023-10-26T06:02:07.969Z,15.48
2023-10-26T06:04:34.926Z,15.48
2023-10-26T06:07:02.744Z,15.49
2023-10-26T06:09:29.730Z,15.51
2023-10-26T06:11:56.691Z,15.51
2023-10-26T06:14:24.037Z,15.51
2023-10-26T06:16:51.187Z,15.53
2023-10-26T06:19:18.291Z,15.51
2023-10-26T06:21:45.307Z,15.49
2023-10-26T06:24:12.550Z,15.50
2023-10-26T06:26:39.656Z,15.50
2023-10-26T06:29:06.529Z,15.49
2023-10-26T06:31:33.608Z,15.48
2023-10-26T06:34:00.695Z,15.50
2023-10-26T06:36:27.767Z,15.49
2023-10-26T06:38:55.803Z,15.49
2023-10-26T06:41:23.050Z,15.47
2023-10-26T06:43:49.957Z,15.48
2023-10-26T06:46:16.877Z,15.50
2023-10-26T06:48:44.091Z,15.48
2023-10-26T06:51:11.073Z,15.48
2023-10-26T06:53:38.123Z,15.46
2023-10-26T06:56:14.258Z,15.48
2023-10-26T06:58:43.884Z,15.49
2023-10-26T07:01:20.708Z,15.48
2023-10-26T07:03:52.040Z,15.50
2023-10-26T07:06:20.648Z,15.56
2023-10-26T07:08:50.224Z,15.58
2023-10-26T07:11:19.163Z,15.57
2023-10-26T07:13:46.907Z,15.58
2023-10-26T07:16:14.103Z,15.57
2023-10-26T07:18:41.011Z,15.58
2023-10-26T07:21:09.094Z,15.59
2023-10-26T07:23:36.307Z,15.61
2023-10-26T07:26:03.856Z,15.60
2023-10-26T07:28:30.753Z,15.61
2023-10-26T07:30:57.908Z,15.66
2023-10-26T07:33:25.089Z,15.58
2023-10-26T07:35:58.372Z,15.62
2023-10-26T07:38:36.563Z,15.60
2023-10-26T07:41:06.995Z,15.63
2023-10-26T07:43:35.215Z,15.62
2023-10-26T07:46:02.586Z,15.62
2023-10-26T07:48:29.537Z,15.63
2023-10-26T07:50:59.543Z,15.66
2023-10-26T07:53:26.666Z,15.66
2023-10-26T07:55:58.218Z,15.59
2023-10-26T07:58:29.295Z,15.64
2023-10-26T08:00:57.278Z,15.64
2023-10-26T08:03:29.331Z,15.64
2023-10-26T08:06:01.934Z,15.64
2023-10-26T08:08:29.272Z,15.63
2023-10-26T08:10:57.490Z,15.65
2023-10-26T08:13:24.875Z,15.65
2023-10-26T08:16:09.211Z,15.66
2023-10-26T08:18:40.620Z,15.61
2023-10-26T08:21:07.843Z,15.65
2023-10-26T08:23:34.709Z,15.66
2023-10-26T08:26:09.581Z,15.68
2023-10-26T08:28:39.875Z,15.69
2023-10-26T08:31:08.106Z,15.69
2023-10-26T08:33:35.685Z,15.70
2023-10-26T08:36:05.408Z,15.70
2023-10-26T08:38:34.259Z,15.70
2023-10-26T08:41:01.285Z,15.73
2023-10-26T08:43:30.225Z,15.73
2023-10-26T08:46:00.847Z,15.74
2023-10-26T08:48:30.554Z,15.72
2023-10-26T08:50:57.807Z,15.75
2023-10-26T08:53:25.379Z,15.76
2023-10-26T08:55:56.440Z,15.77
2023-10-26T08:58:23.560Z,15.79
2023-10-26T09:00:53.050Z,15.78
2023-10-26T09:03:23.311Z,15.80
2023-10-26T09:05:54.737Z,15.82
2023-10-26T09:08:24.608Z,15.81
2023-10-26T09:10:52.662Z,15.85
2023-10-26T09:13:30.163Z,15.84
2023-10-26T09:15:59.490Z,15.85
2023-10-26T09:18:29.812Z,15.83
2023-10-26T09:21:04.655Z,15.88
2023-10-26T09:23:33.324Z,15.90
2023-10-26T09:26:05.786Z,15.91
2023-10-26T09:28:55.256Z,15.89
2023-10-26T09:31:23.606Z,15.91
2023-10-26T09:33:51.508Z,15.91
2023-10-26T09:36:20.004Z,15.91
2023-10-26T09:38:49.013Z,15.92
2023-10-26T09:41:20.818Z,15.92
2023-10-26T09:43:48.913Z,15.93
2023-10-26T09:46:16.649Z,15.94
2023-10-26T09:48:43.958Z,15.91
2023-10-26T09:51:16.277Z,15.94
2023-10-26T09:53:47.032Z,15.96
2023-10-26T09:56:26.528Z,15.95
2023-10-26T09:58:55.043Z,15.98
2023-10-26T10:01:35.070Z,15.99
2023-10-26T10:04:03.025Z,16.00
2023-10-26T10:07:00.192Z,16.01
2023-10-26T10:09:28.676Z,16.03
2023-10-26T10:12:14.405Z,16.01
2023-10-26T10:14:54.435Z,16.01
2023-10-26T10:17:44.175Z,16.02
2023-10-26T10:20:20.121Z,16.03
2023-10-26T10:22:49.948Z,16.04
2023-10-26T10:25:21.427Z,16.04
2023-10-26T10:27:50.992Z,16.06
2023-10-26T10:30:22.419Z,16.07
2023-10-26T10:32:50.990Z,16.06
2023-10-26T10:35:23.755Z,16.08
2023-10-26T10:38:23.758Z,16.08
2023-10-26T10:40:56.543Z,16.12
2023-10-26T10:43:37.551Z,16.12
2023-10-26T10:46:13.993Z,16.14
2023-10-26T10:49:04.731Z,16.14
2023-10-26T10:51:33.194Z,16.16
2023-10-26T10:54:05.988Z,16.19
2023-10-26T10:56:48.846Z,16.19
2023-10-26T10:59:23.849Z,16.19
2023-10-26T11:02:06.344Z,16.18
2023-10-26T11:04:35.399Z,16.20
2023-10-26T11:07:04.201Z,16.24
2023-10-26T11:09:39.237Z,16.27
2023-10-26T11:12:10.515Z,16.24
2023-10-26T11:14:37.540Z,16.27
2023-10-26T11:17:04.641Z,16.27
2023-10-26T11:19:37.897Z,16.32
2023-10-26T11:22:05.523Z,16.36
2023-10-26T11:24:32.928Z,16.41
2023-10-26T11:27:10.461Z,16.42
2023-10-26T11:29:42.303Z,16.42
2023-10-26T11:32:19.823Z,16.43
2023-10-26T11:35:07.435Z,16.44
2023-10-26T11:37:39.044Z,16.44
2023-10-26T11:40:07.617Z,16.47
2023-10-26T11:42:54.751Z,16.47
2023-10-26T11:45:23.354Z,16.44
2023-10-26T11:47:54.024Z,16.43
2023-10-26T11:50:26.622Z,16.39
2023-10-26T11:52:56.151Z,16.40
2023-10-26T11:55:24.360Z,16.40
2023-10-26T11:57:52.616Z,16.40
2023-10-26T12:00:20.891Z,16.41
2023-10-26T12:02:47.938Z,16.41
2023-10-26T12:05:19.520Z,16.43
2023-10-26T12:07:47.891Z,16.41
2023-10-26T12:10:19.299Z,16.41
2023-10-26T12:12:46.956Z,16.42
2023-10-26T12:15:14.330Z,16.41
2023-10-26T12:17:41.180Z,16.40
2023-10-26T12:20:09.547Z,16.40
2023-10-26T12:22:36.463Z,16.42
2023-10-26T12:25:07.968Z,16.39
2023-10-26T12:28:24.093Z,16.38
2023-10-26T12:30:23.079Z,16.38
2023-10-26T12:32:49.940Z,16.39
2023-10-26T12:35:16.778Z,16.37
2023-10-26T12:37:43.542Z,16.38
2023-10-26T12:40:10.844Z,16.36
2023-10-26T12:42:37.668Z,16.37
2023-10-26T12:45:05.051Z,16.37
2023-10-26T12:47:31.822Z,16.38
2023-10-26T12:49:58.625Z,16.36
2023-10-26T12:52:25.934Z,16.37
2023-10-26T12:54:52.745Z,16.38
2023-10-26T12:57:19.890Z,16.40
2023-10-26T12:59:46.839Z,16.41
2023-10-26T13:02:13.593Z,16.45
2023-10-26T13:04:40.491Z,16.49
2023-10-26T13:07:07.341Z,16.46
2023-10-26T13:09:34.764Z,16.45
2023-10-26T13:12:01.911Z,16.46
2023-10-26T13:14:28.649Z,16.44
2023-10-26T13:16:58.917Z,16.44
2023-10-26T13:19:26.370Z,16.43
2023-10-26T13:21:53.350Z,16.42
2023-10-26T13:24:20.860Z,16.41
2023-10-26T13:26:47.743Z,16.41
2023-10-26T13:29:14.705Z,16.41
2023-10-26T13:31:41.807Z,16.39
2023-10-26T13:34:09.037Z,16.40
2023-10-26T13:36:36.326Z,16.40
2023-10-26T13:39:05.896Z,16.40
2023-10-26T13:41:32.827Z,16.41
2023-10-26T13:44:00.441Z,16.40
2023-10-26T13:46:27.632Z,16.40
2023-10-26T13:48:56.898Z,16.43
2023-10-26T13:51:23.955Z,16.43
2023-10-26T13:53:51.188Z,16.43
2023-10-26T13:56:18.007Z,16.42
2023-10-26T13:58:44.909Z,16.44
2023-10-26T14:01:13.683Z,16.44
2023-10-26T14:03:41.231Z,16.52
2023-10-26T14:06:12.679Z,16.55
2023-10-26T14:08:39.566Z,16.53
2023-10-26T14:11:06.533Z,16.50
2023-10-26T14:13:33.413Z,16.54
2023-10-26T14:16:00.537Z,16.57
2023-10-26T14:18:27.761Z,16.57
2023-10-26T14:20:54.754Z,16.59
2023-10-26T14:23:21.637Z,16.61
2023-10-26T14:25:48.469Z,16.62
2023-10-26T14:28:15.569Z,16.62
2023-10-26T14:30:42.539Z,16.67
2023-10-26T14:33:09.434Z,16.70
2023-10-26T14:35:36.801Z,16.76
2023-10-26T14:38:03.900Z,16.78
2023-10-26T14:40:30.758Z,16.77
2023-10-26T14:42:57.991Z,16.74
2023-10-26T14:45:26.746Z,16.70
2023-10-26T14:47:54.226Z,16.67
2023-10-26T14:50:21.537Z,16.67
2023-10-26T14:52:48.493Z,16.66
2023-10-26T14:55:15.579Z,16.66
2023-10-26T14:57:42.574Z,16.63
2023-10-26T15:00:10.108Z,16.62
2023-10-26T15:02:37.135Z,16.59
2023-10-26T15:05:05.446Z,16.61
2023-10-26T15:07:32.911Z,16.58
2023-10-26T15:10:24.015Z,16.59
2023-10-26T15:12:46.783Z,16.65
2023-10-26T15:15:13.631Z,16.66
2023-10-26T15:17:40.415Z,16.67
2023-10-26T15:20:11.673Z,16.66
2023-10-26T15:22:38.482Z,16.64
2023-10-26T15:25:05.989Z,16.67
2023-10-26T15:27:32.993Z,16.67
2023-10-26T15:29:59.990Z,16.69
2023-10-26T15:32:27.174Z,16.70
2023-10-26T15:34:53.985Z,16.72
2023-10-26T15:37:22.814Z,16.69
2023-10-26T15:39:55.516Z,16.69
2023-10-26T15:42:22.698Z,16.70
2023-10-26T15:44:56.112Z,16.69
2023-10-26T15:47:25.442Z,16.70
2023-10-26T15:49:52.947Z,16.67
2023-10-26T15:52:20.033Z,16.71
2023-10-26T15:54:47.210Z,16.71
2023-10-26T15:57:26.113Z,16.71
2023-10-26T15:59:53.460Z,16.67
2023-10-26T16:02:20.454Z,16.68
2023-10-26T16:04:47.312Z,16.66
2023-10-26T16:07:14.141Z,16.67
2023-10-26T16:09:41.017Z,16.64
2023-10-26T16:12:09.487Z,16.66
2023-10-26T16:14:36.332Z,16.65
2023-10-26T16:17:04.437Z,16.64
2023-10-26T16:19:31.303Z,16.67
2023-10-26T16:21:58.195Z,16.66
2023-10-26T16:24:25.109Z,16.65
2023-10-26T16:26:52.236Z,16.66
2023-10-26T16:29:19.159Z,16.64
2023-10-26T16:31:46.037Z,16.65
2023-10-26T16:34:13.081Z,16.66
2023-10-26T16:36:39.898Z,16.67
2023-10-26T16:39:07.060Z,16.67
2023-10-26T16:41:33.966Z,16.65
2023-10-26T16:44:01.468Z,16.64
2023-10-26T16:46:28.434Z,16.63
2023-10-26T16:48:55.464Z,16.65
2023-10-26T16:51:22.589Z,16.67
2023-10-26T16:53:49.405Z,16.66
2023-10-26T16:56:16.350Z,16.64
2023-10-26T16:58:43.120Z,16.66
2023-10-26T17:01:12.039Z,16.65
2023-10-26T17:03:39.574Z,16.65
2023-10-26T17:06:06.539Z,16.64
2023-10-26T17:08:33.460Z,16.66
2023-10-26T17:11:00.329Z,16.64
2023-10-26T17:13:27.627Z,16.64
2023-10-26T17:15:54.860Z,16.62
2023-10-26T17:18:23.257Z,16.62
2023-10-26T17:20:50.312Z,16.61
2023-10-26T17:23:17.416Z,16.61
2023-10-26T17:25:44.334Z,16.63
2023-10-26T17:28:12.689Z,16.63
2023-10-26T17:30:41.053Z,16.63
2023-10-26T17:33:11.802Z,16.60
2023-10-26T17:35:44.201Z,16.61
2023-10-26T17:38:12.530Z,16.62
2023-10-26T17:40:39.378Z,16.62
2023-10-26T17:43:07.507Z,16.63
2023-10-26T17:45:34.558Z,16.61
2023-10-26T17:48:01.907Z,16.62
2023-10-26T17:50:28.786Z,16.61
2023-10-26T17:52:55.577Z,16.61
2023-10-26T17:55:23.247Z,16.61
2023-10-26T17:57:50.254Z,16.60
2023-10-26T18:00:17.602Z,16.59
2023-10-26T18:02:44.533Z,16.59
2023-10-26T18:05:12.193Z,16.58
2023-10-26T18:07:39.070Z,16.59
2023-10-26T18:10:06.866Z,16.59
2023-10-26T18:12:33.679Z,16.58
2023-10-26T18:15:00.420Z,16.60
2023-10-26T18:17:27.690Z,16.58
2023-10-26T18:19:54.499Z,16.58
2023-10-26T18:22:21.326Z,16.57
2023-10-26T18:24:50.725Z,16.57
2023-10-26T18:27:18.049Z,16.56
2023-10-26T18:29:48.289Z,16.54
2023-10-26T18:32:15.322Z,16.56
2023-10-26T18:34:44.934Z,16.64
2023-10-26T18:37:11.843Z,16.59
2023-10-26T18:39:38.729Z,16.57
2023-10-26T18:42:06.542Z,16.57
2023-10-26T18:44:33.510Z,16.61
2023-10-26T18:47:00.318Z,16.59
2023-10-26T18:49:28.976Z,16.60
2023-10-26T18:51:56.235Z,16.59
2023-10-26T18:54:23.655Z,16.58
2023-10-26T18:56:50.420Z,16.56
2023-10-26T18:59:17.503Z,16.56
2023-10-26T19:01:47.631Z,16.58
2023-10-26T19:04:15.731Z,16.56
2023-10-26T19:06:43.015Z,16.57
2023-10-26T19:09:10.066Z,16.54
2023-10-26T19:11:37.304Z,16.57
2023-10-26T19:14:05.004Z,16.56
2023-10-26T19:16:32.156Z,16.55
2023-10-26T19:18:59.164Z,16.54
2023-10-26T19:21:29.966Z,16.53
2023-10-26T19:23:56.998Z,16.53
2023-10-26T19:26:24.111Z,16.52
2023-10-26T19:28:50.912Z,16.53
2023-10-26T19:31:18.086Z,16.52
2023-10-26T19:33:48.166Z,16.50
2023-10-26T19:36:15.261Z,16.51
2023-10-26T19:38:42.145Z,16.50
2023-10-26T19:41:09.023Z,16.49
2023-10-26T19:43:35.824Z,16.49
2023-10-26T19:46:02.943Z,16.50
2023-10-26T19:48:29.781Z,16.49
2023-10-26T19:50:56.731Z,16.47
2023-10-26T19:53:26.742Z,16.44
2023-10-26T19:55:57.540Z,16.42
2023-10-26T19:58:24.429Z,16.42
2023-10-26T20:00:51.743Z,16.42
2023-10-26T20:03:18.640Z,16.40
2023-10-26T20:05:45.806Z,16.41
2023-10-26T20:08:13.010Z,16.39
2023-10-26T20:10:44.563Z,16.39
2023-10-26T20:13:11.534Z,16.38
2023-10-26T20:15:38.302Z,16.39
2023-10-26T20:18:08.895Z,16.38
2023-10-26T20:20:35.820Z,16.38
2023-10-26T20:23:02.795Z,16.36
2023-10-26T20:25:29.814Z,16.36
2023-10-26T20:27:56.762Z,16.37
2023-10-26T20:30:24.005Z,16.36
2023-10-26T20:32:50.878Z,16.36
2023-10-26T20:35:18.033Z,16.38
2023-10-26T20:37:44.861Z,16.36
2023-10-26T20:40:13.462Z,16.32
2023-10-26T20:42:44.312Z,16.24
2023-10-26T20:45:14.407Z,16.23
2023-10-26T20:47:41.528Z,16.23
2023-10-26T20:50:08.776Z,16.24
2023-10-26T20:52:35.631Z,16.20
2023-10-26T20:55:02.516Z,16.20
2023-10-26T20:57:29.314Z,16.21
2023-10-26T20:59:56.173Z,16.20
2023-10-26T21:02:23.320Z,16.21
2023-10-26T21:04:50.067Z,16.21
2023-10-26T21:07:16.978Z,16.20
2023-10-26T21:09:43.981Z,16.20
2023-10-26T21:12:11.027Z,16.19
2023-10-26T21:14:37.976Z,16.19
2023-10-26T21:17:05.114Z,16.19
2023-10-26T21:19:31.988Z,16.16
2023-10-26T21:22:01.296Z,16.16
2023-10-26T21:24:28.339Z,16.15
2023-10-26T21:26:55.102Z,16.15
2023-10-26T21:29:22.044Z,16.16
2023-10-26T21:31:48.972Z,16.15
2023-10-26T21:34:16.103Z,16.17
2023-10-26T21:36:43.433Z,16.19
2023-10-26T21:39:10.206Z,16.18
2023-10-26T21:41:37.069Z,16.20
2023-10-26T21:44:04.076Z,16.21
2023-10-26T21:46:31.200Z,16.22
2023-10-26T21:48:58.221Z,16.21
2023-10-26T21:51:25.119Z,16.21
2023-10-26T21:53:51.954Z,16.20
2023-10-26T21:56:18.859Z,16.20
2023-10-26T21:58:46.861Z,16.22
2023-10-26T22:01:14.557Z,16.21
2023-10-26T22:03:43.196Z,16.21
2023-10-26T22:06:12.989Z,16.20
2023-10-26T22:08:43.404Z,16.17
2023-10-26T22:11:10.225Z,16.17
2023-10-26T22:13:37.214Z,16.19
2023-10-26T22:16:04.311Z,16.21
2023-10-26T22:18:31.331Z,16.20
2023-10-26T22:21:05.511Z,16.20
2023-10-26T22:23:32.381Z,16.21
2023-10-26T22:26:00.056Z,16.19
2023-10-26T22:32:14.947Z,16.19
2023-10-26T22:34:41.980Z,16.25
2023-10-26T22:37:09.400Z,16.24
2023-10-26T22:39:36.272Z,16.25
2023-10-26T22:42:03.636Z,16.19
2023-10-26T22:44:30.410Z,16.25
2023-10-26T22:46:57.351Z,16.22
2023-10-26T22:49:24.369Z,16.22
2023-10-26T22:51:51.412Z,16.26
2023-10-26T22:54:18.612Z,16.21
2023-10-26T22:56:45.951Z,16.21
2023-10-26T22:59:13.726Z,16.25
2023-10-26T23:01:40.916Z,16.25
2023-10-26T23:04:07.726Z,16.22
2023-10-26T23:06:34.961Z,16.25
2023-10-26T23:09:02.469Z,16.24
2023-10-26T23:11:29.662Z,16.24
2023-10-26T23:14:14.322Z,16.23
2023-10-26T23:16:41.284Z,16.24
2023-10-26T23:19:08.227Z,16.20
2023-10-26T23:21:35.471Z,16.20
2023-10-26T23:24:03.675Z,16.18
2023-10-26T23:26:34.880Z,16.18
2023-10-26T23:29:03.231Z,16.16
2023-10-26T23:31:30.205Z,16.17
2023-10-26T23:33:57.192Z,16.19
2023-10-26T23:36:24.345Z,16.17
2023-10-26T23:38:52.555Z,16.21
2023-10-26T23:41:19.416Z,16.18
2023-10-26T23:43:46.151Z,16.17
2023-10-26T23:46:12.993Z,16.20
2023-10-26T23:48:40.458Z,16.17
2023-10-26T23:51:08.282Z,16.16
2023-10-26T23:53:36.035Z,16.17
2023-10-26T23:56:06.427Z,16.18
2023-10-26T23:58:33.932Z,16.18
